sensor_id;sensor_type;location;lat;lon;timestamp;P1;durP1;ratioP1;P2;durP2;ratioP2
4389;SDS011;2209;48.982;8.406;2022-10-03T00:02:00;7.77;;;6.63;;
4389;SDS011;2209;48.982;8.406;2022-10-03T00:04:43;8.10;;;6.87;;
4389;SDS011;2209;48.982;8.406;2022-10-03T00:07:21;6.10;;;5.50;;
4389;SDS011;2209;48.982;8.406;2022-10-03T00:09:58;6.10;;;5.60;;
4389;SDS011;2209;48.982;8.406;2022-10-03T00:12:36;6.20;;;5.00;;
4389;SDS011;2209;48.982;8.406;2022-10-03T00:15:10;5.13;;;4.63;;
4389;SDS011;2209;48.982;8.406;2022-10-03T00:17:40;6.57;;;5.40;;
4389;SDS011;2209;48.982;8.406;2022-10-03T00:20:13;7.13;;;5.93;;
4389;SDS011;2209;48.982;8.406;2022-10-03T00:22:56;5.47;;;4.97;;
4389;SDS011;2209;48.982;8.406;2022-10-03T00:25:25;6.00;;;5.50;;
4389;SDS011;2209;48.982;8.406;2022-10-03T00:27:54;7.27;;;4.80;;
4389;SDS011;2209;48.982;8.406;2022-10-03T00:30:40;5.50;;;4.67;;
4389;SDS011;2209;48.982;8.406;2022-10-03T00:33:25;4.77;;;3.97;;
4389;SDS011;2209;48.982;8.406;2022-10-03T00:35:56;10.57;;;5.30;;
4389;SDS011;2209;48.982;8.406;2022-10-03T00:38:35;7.00;;;5.77;;
4389;SDS011;2209;48.982;8.406;2022-10-03T00:41:17;7.47;;;5.97;;
4389;SDS011;2209;48.982;8.406;2022-10-03T00:44:00;7.70;;;5.30;;
4389;SDS011;2209;48.982;8.406;2022-10-03T00:46:54;5.27;;;4.77;;
4389;SDS011;2209;48.982;8.406;2022-10-03T00:49:55;5.90;;;5.03;;
4389;SDS011;2209;48.982;8.406;2022-10-03T00:52:40;5.50;;;4.93;;
4389;SDS011;2209;48.982;8.406;2022-10-03T00:55:16;7.10;;;5.77;;
4389;SDS011;2209;48.982;8.406;2022-10-03T00:57:51;5.43;;;4.90;;
4389;SDS011;2209;48.982;8.406;2022-10-03T01:00:22;6.50;;;5.90;;
4389;SDS011;2209;48.982;8.406;2022-10-03T01:02:57;5.70;;;4.17;;
4389;SDS011;2209;48.982;8.406;2022-10-03T01:05:30;4.67;;;4.27;;
4389;SDS011;2209;48.982;8.406;2022-10-03T01:11:01;4.40;;;4.00;;
4389;SDS011;2209;48.982;8.406;2022-10-03T01:13:35;4.77;;;3.60;;
4389;SDS011;2209;48.982;8.406;2022-10-03T01:16:08;5.30;;;4.80;;
4389;SDS011;2209;48.982;8.406;2022-10-03T01:18:43;6.60;;;4.37;;
4389;SDS011;2209;48.982;8.406;2022-10-03T01:21:18;3.47;;;2.90;;
4389;SDS011;2209;48.982;8.406;2022-10-03T01:23:57;3.10;;;2.80;;
4389;SDS011;2209;48.982;8.406;2022-10-03T01:26:51;4.10;;;3.23;;
4389;SDS011;2209;48.982;8.406;2022-10-03T01:29:19;4.53;;;2.73;;
4389;SDS011;2209;48.982;8.406;2022-10-03T01:32:03;3.60;;;3.30;;
4389;SDS011;2209;48.982;8.406;2022-10-03T01:34:30;3.40;;;3.10;;
4389;SDS011;2209;48.982;8.406;2022-10-03T01:37:03;3.33;;;3.03;;
4389;SDS011;2209;48.982;8.406;2022-10-03T01:39:32;3.50;;;2.90;;
4389;SDS011;2209;48.982;8.406;2022-10-03T01:42:00;3.33;;;2.80;;
4389;SDS011;2209;48.982;8.406;2022-10-03T01:44:35;6.60;;;2.97;;
4389;SDS011;2209;48.982;8.406;2022-10-03T01:47:12;2.83;;;2.70;;
4389;SDS011;2209;48.982;8.406;2022-10-03T01:49:41;8.07;;;2.63;;
4389;SDS011;2209;48.982;8.406;2022-10-03T01:52:08;3.23;;;2.80;;
4389;SDS011;2209;48.982;8.406;2022-10-03T01:54:38;3.33;;;3.03;;
4389;SDS011;2209;48.982;8.406;2022-10-03T01:57:08;4.23;;;3.93;;
4389;SDS011;2209;48.982;8.406;2022-10-03T01:59:37;6.90;;;3.90;;
4389;SDS011;2209;48.982;8.406;2022-10-03T02:02:05;3.67;;;2.87;;
4389;SDS011;2209;48.982;8.406;2022-10-03T02:04:35;2.43;;;2.30;;
4389;SDS011;2209;48.982;8.406;2022-10-03T02:07:06;5.07;;;3.37;;
4389;SDS011;2209;48.982;8.406;2022-10-03T02:09:44;5.43;;;4.60;;
4389;SDS011;2209;48.982;8.406;2022-10-03T02:12:18;5.70;;;3.70;;
4389;SDS011;2209;48.982;8.406;2022-10-03T02:14:50;4.97;;;3.50;;
4389;SDS011;2209;48.982;8.406;2022-10-03T02:17:23;5.60;;;3.30;;
4389;SDS011;2209;48.982;8.406;2022-10-03T02:19:53;4.63;;;3.37;;
4389;SDS011;2209;48.982;8.406;2022-10-03T02:22:27;3.60;;;3.07;;
4389;SDS011;2209;48.982;8.406;2022-10-03T02:24:51;4.93;;;4.13;;
4389;SDS011;2209;48.982;8.406;2022-10-03T02:30:19;6.27;;;3.73;;
4389;SDS011;2209;48.982;8.406;2022-10-03T02:33:03;4.07;;;3.77;;
4389;SDS011;2209;48.982;8.406;2022-10-03T02:35:55;4.37;;;3.97;;
4389;SDS011;2209;48.982;8.406;2022-10-03T02:41:25;7.10;;;4.50;;
4389;SDS011;2209;48.982;8.406;2022-10-03T03:04:56;3.80;;;3.50;;
4389;SDS011;2209;48.982;8.406;2022-10-03T03:07:43;3.57;;;3.27;;
4389;SDS011;2209;48.982;8.406;2022-10-03T03:10:31;3.33;;;3.10;;
4389;SDS011;2209;48.982;8.406;2022-10-03T03:13:14;3.50;;;3.20;;
4389;SDS011;2209;48.982;8.406;2022-10-03T03:16:06;7.93;;;4.00;;
4389;SDS011;2209;48.982;8.406;2022-10-03T03:18:53;3.63;;;3.43;;
4389;SDS011;2209;48.982;8.406;2022-10-03T03:21:33;3.43;;;3.13;;
4389;SDS011;2209;48.982;8.406;2022-10-03T03:24:08;4.47;;;3.70;;
4389;SDS011;2209;48.982;8.406;2022-10-03T03:26:45;3.67;;;3.37;;
4389;SDS011;2209;48.982;8.406;2022-10-03T03:29:24;5.17;;;4.30;;
4389;SDS011;2209;48.982;8.406;2022-10-03T03:31:57;4.43;;;3.83;;
4389;SDS011;2209;48.982;8.406;2022-10-03T03:34:26;3.73;;;3.47;;
4389;SDS011;2209;48.982;8.406;2022-10-03T03:36:57;4.20;;;3.80;;
4389;SDS011;2209;48.982;8.406;2022-10-03T03:39:43;3.80;;;3.50;;
4389;SDS011;2209;48.982;8.406;2022-10-03T03:42:20;3.77;;;3.47;;
4389;SDS011;2209;48.982;8.406;2022-10-03T03:44:59;4.93;;;4.53;;
4389;SDS011;2209;48.982;8.406;2022-10-03T03:47:31;4.03;;;3.73;;
4389;SDS011;2209;48.982;8.406;2022-10-03T03:50:08;5.00;;;4.60;;
4389;SDS011;2209;48.982;8.406;2022-10-03T03:52:52;3.97;;;3.43;;
4389;SDS011;2209;48.982;8.406;2022-10-03T03:55:34;4.37;;;3.97;;
4389;SDS011;2209;48.982;8.406;2022-10-03T03:58:12;3.17;;;2.97;;
4389;SDS011;2209;48.982;8.406;2022-10-03T04:00:58;3.90;;;3.60;;
4389;SDS011;2209;48.982;8.406;2022-10-03T04:03:34;3.83;;;3.53;;
4389;SDS011;2209;48.982;8.406;2022-10-03T04:06:20;5.40;;;4.23;;
4389;SDS011;2209;48.982;8.406;2022-10-03T04:09:02;4.10;;;3.80;;
4389;SDS011;2209;48.982;8.406;2022-10-03T04:11:49;7.97;;;3.73;;
4389;SDS011;2209;48.982;8.406;2022-10-03T04:17:26;4.63;;;3.90;;
4389;SDS011;2209;48.982;8.406;2022-10-03T04:20:23;3.93;;;3.60;;
4389;SDS011;2209;48.982;8.406;2022-10-03T04:23:01;4.37;;;3.97;;
4389;SDS011;2209;48.982;8.406;2022-10-03T04:25:44;3.93;;;3.63;;
4389;SDS011;2209;48.982;8.406;2022-10-03T04:28:18;4.30;;;4.00;;
4389;SDS011;2209;48.982;8.406;2022-10-03T04:30:58;4.97;;;4.57;;
4389;SDS011;2209;48.982;8.406;2022-10-03T04:33:30;4.13;;;3.83;;
4389;SDS011;2209;48.982;8.406;2022-10-03T04:39:03;4.80;;;4.10;;
4389;SDS011;2209;48.982;8.406;2022-10-03T04:41:34;10.10;;;4.80;;
4389;SDS011;2209;48.982;8.406;2022-10-03T04:44:07;4.57;;;4.20;;
4389;SDS011;2209;48.982;8.406;2022-10-03T04:46:38;5.93;;;5.20;;
4389;SDS011;2209;48.982;8.406;2022-10-03T04:49:10;5.10;;;4.60;;
4389;SDS011;2209;48.982;8.406;2022-10-03T04:51:41;7.07;;;4.80;;
4389;SDS011;2209;48.982;8.406;2022-10-03T04:54:12;4.00;;;3.60;;
4389;SDS011;2209;48.982;8.406;2022-10-03T04:56:45;4.33;;;3.93;;
4389;SDS011;2209;48.982;8.406;2022-10-03T04:59:27;4.50;;;3.50;;
4389;SDS011;2209;48.982;8.406;2022-10-03T05:01:58;4.50;;;3.90;;
4389;SDS011;2209;48.982;8.406;2022-10-03T05:04:28;7.17;;;4.20;;
4389;SDS011;2209;48.982;8.406;2022-10-03T05:06:58;5.00;;;4.50;;
4389;SDS011;2209;48.982;8.406;2022-10-03T05:09:29;5.10;;;4.60;;
4389;SDS011;2209;48.982;8.406;2022-10-03T05:12:01;5.73;;;4.30;;
4389;SDS011;2209;48.982;8.406;2022-10-03T05:14:37;4.93;;;4.20;;
4389;SDS011;2209;48.982;8.406;2022-10-03T05:17:12;3.93;;;3.53;;
4389;SDS011;2209;48.982;8.406;2022-10-03T05:19:45;3.90;;;3.60;;
4389;SDS011;2209;48.982;8.406;2022-10-03T05:22:24;6.80;;;3.80;;
4389;SDS011;2209;48.982;8.406;2022-10-03T05:24:59;5.43;;;4.17;;
4389;SDS011;2209;48.982;8.406;2022-10-03T05:27:35;4.50;;;4.10;;
4389;SDS011;2209;48.982;8.406;2022-10-03T05:30:06;5.60;;;4.80;;
4389;SDS011;2209;48.982;8.406;2022-10-03T05:32:37;4.47;;;4.13;;
4389;SDS011;2209;48.982;8.406;2022-10-03T05:35:12;6.30;;;4.60;;
4389;SDS011;2209;48.982;8.406;2022-10-03T05:37:57;4.30;;;4.00;;
4389;SDS011;2209;48.982;8.406;2022-10-03T05:40:38;7.27;;;4.30;;
4389;SDS011;2209;48.982;8.406;2022-10-03T05:43:06;4.40;;;3.77;;
4389;SDS011;2209;48.982;8.406;2022-10-03T05:45:46;3.93;;;3.63;;
4389;SDS011;2209;48.982;8.406;2022-10-03T05:48:11;4.43;;;3.80;;
4389;SDS011;2209;48.982;8.406;2022-10-03T05:56:36;4.17;;;3.70;;
4389;SDS011;2209;48.982;8.406;2022-10-03T05:59:24;5.17;;;4.73;;
4389;SDS011;2209;48.982;8.406;2022-10-03T06:05:11;5.47;;;4.53;;
4389;SDS011;2209;48.982;8.406;2022-10-03T06:07:39;4.63;;;3.70;;
4389;SDS011;2209;48.982;8.406;2022-10-03T06:13:09;5.83;;;4.87;;
4389;SDS011;2209;48.982;8.406;2022-10-03T06:15:44;4.77;;;4.40;;
4389;SDS011;2209;48.982;8.406;2022-10-03T06:18:20;4.60;;;4.20;;
4389;SDS011;2209;48.982;8.406;2022-10-03T06:21:08;5.07;;;4.37;;
4389;SDS011;2209;48.982;8.406;2022-10-03T06:23:57;7.03;;;4.27;;
4389;SDS011;2209;48.982;8.406;2022-10-03T06:29:45;5.13;;;4.33;;
4389;SDS011;2209;48.982;8.406;2022-10-03T06:32:24;5.60;;;4.27;;
4389;SDS011;2209;48.982;8.406;2022-10-03T06:35:13;7.17;;;4.80;;
4389;SDS011;2209;48.982;8.406;2022-10-03T06:41:21;4.80;;;4.30;;
4389;SDS011;2209;48.982;8.406;2022-10-03T06:46:55;6.00;;;4.93;;
4389;SDS011;2209;48.982;8.406;2022-10-03T06:49:43;8.50;;;4.90;;
4389;SDS011;2209;48.982;8.406;2022-10-03T06:52:36;5.00;;;4.60;;
4389;SDS011;2209;48.982;8.406;2022-10-03T06:55:36;5.50;;;4.07;;
4389;SDS011;2209;48.982;8.406;2022-10-03T07:01:34;7.47;;;4.43;;
4389;SDS011;2209;48.982;8.406;2022-10-03T07:04:32;5.27;;;4.77;;
4389;SDS011;2209;48.982;8.406;2022-10-03T07:07:28;5.13;;;4.63;;
4389;SDS011;2209;48.982;8.406;2022-10-03T07:10:29;6.07;;;4.57;;
4389;SDS011;2209;48.982;8.406;2022-10-03T07:13:16;5.43;;;4.93;;
4389;SDS011;2209;48.982;8.406;2022-10-03T07:16:00;6.17;;;5.23;;
4389;SDS011;2209;48.982;8.406;2022-10-03T07:18:50;5.63;;;4.83;;
4389;SDS011;2209;48.982;8.406;2022-10-03T07:24:39;4.57;;;4.17;;
4389;SDS011;2209;48.982;8.406;2022-10-03T07:27:34;5.60;;;4.90;;
4389;SDS011;2209;48.982;8.406;2022-10-03T07:30:08;6.13;;;4.40;;
4389;SDS011;2209;48.982;8.406;2022-10-03T07:39:07;42.10;;;21.77;;
4389;SDS011;2209;48.982;8.406;2022-10-03T07:44:46;53.17;;;32.23;;
4389;SDS011;2209;48.982;8.406;2022-10-03T07:50:43;24.27;;;15.03;;
4389;SDS011;2209;48.982;8.406;2022-10-03T07:53:15;18.33;;;11.10;;
4389;SDS011;2209;48.982;8.406;2022-10-03T07:55:56;9.97;;;8.47;;
4389;SDS011;2209;48.982;8.406;2022-10-03T07:58:31;12.83;;;6.93;;
4389;SDS011;2209;48.982;8.406;2022-10-03T08:01:07;8.10;;;7.30;;
4389;SDS011;2209;48.982;8.406;2022-10-03T08:03:55;11.40;;;7.20;;
4389;SDS011;2209;48.982;8.406;2022-10-03T08:06:46;10.80;;;6.77;;
4389;SDS011;2209;48.982;8.406;2022-10-03T08:12:10;13.93;;;7.73;;
4389;SDS011;2209;48.982;8.406;2022-10-03T08:15:00;9.23;;;7.13;;
4389;SDS011;2209;48.982;8.406;2022-10-03T08:17:35;10.10;;;7.33;;
4389;SDS011;2209;48.982;8.406;2022-10-03T08:20:33;11.13;;;7.93;;
4389;SDS011;2209;48.982;8.406;2022-10-03T08:23:06;7.57;;;6.77;;
4389;SDS011;2209;48.982;8.406;2022-10-03T08:25:50;9.10;;;5.93;;
4389;SDS011;2209;48.982;8.406;2022-10-03T08:31:18;9.07;;;7.20;;
4389;SDS011;2209;48.982;8.406;2022-10-03T08:34:15;12.00;;;9.60;;
4389;SDS011;2209;48.982;8.406;2022-10-03T08:37:20;15.37;;;10.10;;
4389;SDS011;2209;48.982;8.406;2022-10-03T08:43:29;18.83;;;13.47;;
4389;SDS011;2209;48.982;8.406;2022-10-03T08:49:34;21.27;;;16.10;;
4389;SDS011;2209;48.982;8.406;2022-10-03T08:52:22;25.90;;;13.73;;
4389;SDS011;2209;48.982;8.406;2022-10-03T08:54:58;19.90;;;13.80;;
4389;SDS011;2209;48.982;8.406;2022-10-03T08:57:53;24.77;;;15.80;;
4389;SDS011;2209;48.982;8.406;2022-10-03T09:00:38;27.73;;;16.77;;
4389;SDS011;2209;48.982;8.406;2022-10-03T09:05:46;22.00;;;14.57;;
4389;SDS011;2209;48.982;8.406;2022-10-03T09:08:44;27.40;;;16.17;;
4389;SDS011;2209;48.982;8.406;2022-10-03T09:14:21;30.60;;;13.43;;
4389;SDS011;2209;48.982;8.406;2022-10-03T09:16:56;25.10;;;16.47;;
4389;SDS011;2209;48.982;8.406;2022-10-03T09:19:48;29.13;;;16.10;;
4389;SDS011;2209;48.982;8.406;2022-10-03T09:22:44;20.97;;;14.93;;
4389;SDS011;2209;48.982;8.406;2022-10-03T09:25:22;22.70;;;15.23;;
4389;SDS011;2209;48.982;8.406;2022-10-03T09:28:05;26.80;;;16.70;;
4389;SDS011;2209;48.982;8.406;2022-10-03T09:30:58;20.67;;;13.80;;
4389;SDS011;2209;48.982;8.406;2022-10-03T09:36:47;20.63;;;12.77;;
4389;SDS011;2209;48.982;8.406;2022-10-03T09:42:54;23.80;;;13.97;;
4389;SDS011;2209;48.982;8.406;2022-10-03T09:48:51;25.10;;;10.93;;
4389;SDS011;2209;48.982;8.406;2022-10-03T09:51:34;17.80;;;11.03;;
4389;SDS011;2209;48.982;8.406;2022-10-03T09:57:16;16.33;;;11.50;;
4389;SDS011;2209;48.982;8.406;2022-10-03T10:00:17;15.63;;;11.80;;
4389;SDS011;2209;48.982;8.406;2022-10-03T10:03:02;16.10;;;11.50;;
4389;SDS011;2209;48.982;8.406;2022-10-03T10:06:00;15.43;;;10.90;;
4389;SDS011;2209;48.982;8.406;2022-10-03T10:11:59;16.30;;;11.17;;
4389;SDS011;2209;48.982;8.406;2022-10-03T10:14:45;22.13;;;11.20;;
4389;SDS011;2209;48.982;8.406;2022-10-03T10:17:38;16.00;;;11.80;;
4389;SDS011;2209;48.982;8.406;2022-10-03T10:20:23;20.47;;;11.13;;
4389;SDS011;2209;48.982;8.406;2022-10-03T10:23:09;16.20;;;10.53;;
4389;SDS011;2209;48.982;8.406;2022-10-03T10:26:02;15.87;;;10.73;;
4389;SDS011;2209;48.982;8.406;2022-10-03T10:31:58;10.97;;;8.43;;
4389;SDS011;2209;48.982;8.406;2022-10-03T10:34:47;20.03;;;8.87;;
4389;SDS011;2209;48.982;8.406;2022-10-03T10:37:49;14.83;;;10.80;;
4389;SDS011;2209;48.982;8.406;2022-10-03T10:43:34;13.40;;;10.10;;
4389;SDS011;2209;48.982;8.406;2022-10-03T10:46:31;14.37;;;9.63;;
4389;SDS011;2209;48.982;8.406;2022-10-03T10:49:37;11.87;;;9.37;;
4389;SDS011;2209;48.982;8.406;2022-10-03T10:55:41;15.80;;;8.73;;
4389;SDS011;2209;48.982;8.406;2022-10-03T11:04:40;12.77;;;8.10;;
4389;SDS011;2209;48.982;8.406;2022-10-03T11:07:47;12.67;;;8.10;;
4389;SDS011;2209;48.982;8.406;2022-10-03T11:10:38;12.27;;;7.97;;
4389;SDS011;2209;48.982;8.406;2022-10-03T11:16:32;15.43;;;7.07;;
4389;SDS011;2209;48.982;8.406;2022-10-03T11:19:39;9.37;;;5.90;;
4389;SDS011;2209;48.982;8.406;2022-10-03T11:25:32;9.67;;;5.40;;
4389;SDS011;2209;48.982;8.406;2022-10-03T11:31:40;9.40;;;5.80;;
4389;SDS011;2209;48.982;8.406;2022-10-03T11:37:30;11.50;;;5.80;;
4389;SDS011;2209;48.982;8.406;2022-10-03T11:40:10;10.60;;;4.87;;
4389;SDS011;2209;48.982;8.406;2022-10-03T11:42:47;5.30;;;4.80;;
4389;SDS011;2209;48.982;8.406;2022-10-03T11:45:17;8.00;;;4.37;;
4389;SDS011;2209;48.982;8.406;2022-10-03T11:47:50;8.93;;;4.50;;
4389;SDS011;2209;48.982;8.406;2022-10-03T11:50:22;13.43;;;3.70;;
4389;SDS011;2209;48.982;8.406;2022-10-03T11:53:05;7.63;;;4.60;;
4389;SDS011;2209;48.982;8.406;2022-10-03T11:55:36;8.90;;;4.70;;
4389;SDS011;2209;48.982;8.406;2022-10-03T11:58:10;9.23;;;4.90;;
4389;SDS011;2209;48.982;8.406;2022-10-03T12:00:44;9.07;;;4.90;;
4389;SDS011;2209;48.982;8.406;2022-10-03T12:03:17;9.80;;;4.13;;
4389;SDS011;2209;48.982;8.406;2022-10-03T12:05:47;12.50;;;3.90;;
4389;SDS011;2209;48.982;8.406;2022-10-03T12:08:34;4.10;;;2.93;;
4389;SDS011;2209;48.982;8.406;2022-10-03T12:11:16;4.03;;;3.20;;
4389;SDS011;2209;48.982;8.406;2022-10-03T12:13:48;9.90;;;3.60;;
4389;SDS011;2209;48.982;8.406;2022-10-03T12:16:20;5.93;;;3.43;;
4389;SDS011;2209;48.982;8.406;2022-10-03T12:18:51;4.43;;;4.13;;
4389;SDS011;2209;48.982;8.406;2022-10-03T12:21:21;8.10;;;4.13;;
4389;SDS011;2209;48.982;8.406;2022-10-03T12:23:57;5.47;;;3.50;;
4389;SDS011;2209;48.982;8.406;2022-10-03T12:26:30;7.30;;;4.80;;
4389;SDS011;2209;48.982;8.406;2022-10-03T12:29:02;7.13;;;5.07;;
4389;SDS011;2209;48.982;8.406;2022-10-03T12:31:29;6.20;;;3.80;;
4389;SDS011;2209;48.982;8.406;2022-10-03T12:33:56;8.87;;;3.87;;
4389;SDS011;2209;48.982;8.406;2022-10-03T12:36:33;6.50;;;4.10;;
4389;SDS011;2209;48.982;8.406;2022-10-03T12:39:12;7.87;;;4.00;;
4389;SDS011;2209;48.982;8.406;2022-10-03T12:41:50;6.57;;;4.10;;
4389;SDS011;2209;48.982;8.406;2022-10-03T12:44:25;10.20;;;3.80;;
4389;SDS011;2209;48.982;8.406;2022-10-03T12:46:58;10.17;;;4.13;;
4389;SDS011;2209;48.982;8.406;2022-10-03T12:49:35;6.40;;;3.97;;
4389;SDS011;2209;48.982;8.406;2022-10-03T12:52:15;5.80;;;3.43;;
4389;SDS011;2209;48.982;8.406;2022-10-03T12:54:44;9.00;;;4.37;;
4389;SDS011;2209;48.982;8.406;2022-10-03T12:57:16;9.60;;;4.73;;
4389;SDS011;2209;48.982;8.406;2022-10-03T12:59:59;9.53;;;4.47;;
4389;SDS011;2209;48.982;8.406;2022-10-03T13:02:26;4.90;;;3.80;;
4389;SDS011;2209;48.982;8.406;2022-10-03T13:05:17;6.60;;;4.60;;
4389;SDS011;2209;48.982;8.406;2022-10-03T13:07:58;7.57;;;4.13;;
4389;SDS011;2209;48.982;8.406;2022-10-03T13:10:28;7.63;;;4.70;;
4389;SDS011;2209;48.982;8.406;2022-10-03T13:13:03;8.30;;;4.63;;
4389;SDS011;2209;48.982;8.406;2022-10-03T13:15:41;5.60;;;3.77;;
4389;SDS011;2209;48.982;8.406;2022-10-03T13:18:28;6.97;;;3.67;;
4389;SDS011;2209;48.982;8.406;2022-10-03T13:20:57;5.80;;;3.70;;
4389;SDS011;2209;48.982;8.406;2022-10-03T13:23:30;4.50;;;4.10;;
4389;SDS011;2209;48.982;8.406;2022-10-03T13:26:02;4.83;;;4.37;;
4389;SDS011;2209;48.982;8.406;2022-10-03T13:28:34;6.47;;;4.10;;
4389;SDS011;2209;48.982;8.406;2022-10-03T13:31:12;6.47;;;4.23;;
4389;SDS011;2209;48.982;8.406;2022-10-03T13:33:43;5.70;;;3.93;;
4389;SDS011;2209;48.982;8.406;2022-10-03T13:36:12;4.60;;;3.90;;
4389;SDS011;2209;48.982;8.406;2022-10-03T13:38:48;13.10;;;4.20;;
4389;SDS011;2209;48.982;8.406;2022-10-03T13:41:29;4.87;;;3.30;;
4389;SDS011;2209;48.982;8.406;2022-10-03T13:44:03;3.73;;;3.30;;
4389;SDS011;2209;48.982;8.406;2022-10-03T13:46:35;4.67;;;2.83;;
4389;SDS011;2209;48.982;8.406;2022-10-03T13:49:08;3.90;;;3.40;;
4389;SDS011;2209;48.982;8.406;2022-10-03T13:51:40;3.30;;;3.00;;
4389;SDS011;2209;48.982;8.406;2022-10-03T13:54:07;5.50;;;3.53;;
4389;SDS011;2209;48.982;8.406;2022-10-03T13:56:37;4.13;;;3.30;;
4389;SDS011;2209;48.982;8.406;2022-10-03T13:59:08;7.30;;;3.80;;
4389;SDS011;2209;48.982;8.406;2022-10-03T14:01:47;3.30;;;2.93;;
4389;SDS011;2209;48.982;8.406;2022-10-03T14:04:23;4.17;;;2.10;;
4389;SDS011;2209;48.982;8.406;2022-10-03T14:07:03;5.77;;;2.83;;
4389;SDS011;2209;48.982;8.406;2022-10-03T14:09:36;4.30;;;2.73;;
4389;SDS011;2209;48.982;8.406;2022-10-03T14:12:10;6.47;;;2.90;;
4389;SDS011;2209;48.982;8.406;2022-10-03T14:14:44;4.80;;;2.43;;
4389;SDS011;2209;48.982;8.406;2022-10-03T14:17:16;7.60;;;3.10;;
4389;SDS011;2209;48.982;8.406;2022-10-03T14:19:49;4.27;;;2.60;;
4389;SDS011;2209;48.982;8.406;2022-10-03T14:22:26;5.10;;;2.60;;
4389;SDS011;2209;48.982;8.406;2022-10-03T14:25:00;3.03;;;2.73;;
4389;SDS011;2209;48.982;8.406;2022-10-03T14:27:40;5.23;;;2.60;;
4389;SDS011;2209;48.982;8.406;2022-10-03T14:30:11;5.23;;;2.93;;
4389;SDS011;2209;48.982;8.406;2022-10-03T14:32:37;4.23;;;3.00;;
4389;SDS011;2209;48.982;8.406;2022-10-03T14:35:08;4.50;;;2.67;;
4389;SDS011;2209;48.982;8.406;2022-10-03T14:37:39;3.00;;;2.70;;
4389;SDS011;2209;48.982;8.406;2022-10-03T14:40:11;6.90;;;2.50;;
4389;SDS011;2209;48.982;8.406;2022-10-03T14:42:47;4.87;;;3.20;;
4389;SDS011;2209;48.982;8.406;2022-10-03T14:45:21;4.83;;;3.07;;
4389;SDS011;2209;48.982;8.406;2022-10-03T14:47:50;4.13;;;2.20;;
4389;SDS011;2209;48.982;8.406;2022-10-03T14:50:16;3.53;;;3.20;;
4389;SDS011;2209;48.982;8.406;2022-10-03T14:52:43;8.33;;;2.60;;
4389;SDS011;2209;48.982;8.406;2022-10-03T14:55:11;7.10;;;3.20;;
4389;SDS011;2209;48.982;8.406;2022-10-03T14:57:39;6.27;;;3.53;;
4389;SDS011;2209;48.982;8.406;2022-10-03T15:00:06;4.20;;;2.50;;
4389;SDS011;2209;48.982;8.406;2022-10-03T15:02:44;5.17;;;2.63;;
4389;SDS011;2209;48.982;8.406;2022-10-03T15:05:09;5.63;;;3.43;;
4389;SDS011;2209;48.982;8.406;2022-10-03T15:07:35;9.77;;;3.10;;
4389;SDS011;2209;48.982;8.406;2022-10-03T15:09:59;5.10;;;3.00;;
4389;SDS011;2209;48.982;8.406;2022-10-03T15:12:22;3.00;;;2.60;;
4389;SDS011;2209;48.982;8.406;2022-10-03T15:14:52;3.53;;;3.13;;
4389;SDS011;2209;48.982;8.406;2022-10-03T15:17:18;4.30;;;2.50;;
4389;SDS011;2209;48.982;8.406;2022-10-03T15:19:46;4.53;;;2.57;;
4389;SDS011;2209;48.982;8.406;2022-10-03T15:22:21;3.73;;;3.13;;
4389;SDS011;2209;48.982;8.406;2022-10-03T15:24:52;4.80;;;2.73;;
4389;SDS011;2209;48.982;8.406;2022-10-03T15:27:18;5.50;;;3.23;;
4389;SDS011;2209;48.982;8.406;2022-10-03T15:29:43;3.67;;;2.50;;
4389;SDS011;2209;48.982;8.406;2022-10-03T15:32:06;5.70;;;3.03;;
4389;SDS011;2209;48.982;8.406;2022-10-03T15:34:41;7.13;;;3.10;;
4389;SDS011;2209;48.982;8.406;2022-10-03T15:37:12;6.83;;;3.17;;
4389;SDS011;2209;48.982;8.406;2022-10-03T15:39:38;7.13;;;3.10;;
4389;SDS011;2209;48.982;8.406;2022-10-03T15:42:04;6.50;;;2.70;;
4389;SDS011;2209;48.982;8.406;2022-10-03T15:44:47;4.97;;;2.83;;
4389;SDS011;2209;48.982;8.406;2022-10-03T15:47:13;5.13;;;3.37;;
4389;SDS011;2209;48.982;8.406;2022-10-03T15:49:42;4.70;;;2.60;;
4389;SDS011;2209;48.982;8.406;2022-10-03T15:52:12;4.13;;;2.57;;
4389;SDS011;2209;48.982;8.406;2022-10-03T15:54:38;4.93;;;3.20;;
4389;SDS011;2209;48.982;8.406;2022-10-03T15:57:02;5.60;;;3.23;;
4389;SDS011;2209;48.982;8.406;2022-10-03T15:59:28;4.30;;;2.90;;
4389;SDS011;2209;48.982;8.406;2022-10-03T16:01:53;6.23;;;2.30;;
4389;SDS011;2209;48.982;8.406;2022-10-03T16:04:16;5.00;;;2.80;;
4389;SDS011;2209;48.982;8.406;2022-10-03T16:06:42;2.47;;;2.27;;
4389;SDS011;2209;48.982;8.406;2022-10-03T16:09:11;6.53;;;2.73;;
4389;SDS011;2209;48.982;8.406;2022-10-03T16:11:38;3.30;;;2.80;;
4389;SDS011;2209;48.982;8.406;2022-10-03T16:14:11;3.07;;;2.80;;
4389;SDS011;2209;48.982;8.406;2022-10-03T16:16:38;7.13;;;3.03;;
4389;SDS011;2209;48.982;8.406;2022-10-03T16:19:18;6.37;;;2.67;;
4389;SDS011;2209;48.982;8.406;2022-10-03T16:21:45;4.03;;;2.97;;
4389;SDS011;2209;48.982;8.406;2022-10-03T16:24:16;4.70;;;2.13;;
4389;SDS011;2209;48.982;8.406;2022-10-03T16:26:48;4.30;;;2.80;;
4389;SDS011;2209;48.982;8.406;2022-10-03T16:29:14;2.83;;;2.60;;
4389;SDS011;2209;48.982;8.406;2022-10-03T16:31:42;7.00;;;2.50;;
4389;SDS011;2209;48.982;8.406;2022-10-03T16:34:12;3.10;;;2.37;;
4389;SDS011;2209;48.982;8.406;2022-10-03T16:36:40;6.90;;;2.47;;
4389;SDS011;2209;48.982;8.406;2022-10-03T16:39:03;6.53;;;3.40;;
4389;SDS011;2209;48.982;8.406;2022-10-03T16:41:39;6.10;;;3.80;;
4389;SDS011;2209;48.982;8.406;2022-10-03T16:44:03;5.33;;;2.93;;
4389;SDS011;2209;48.982;8.406;2022-10-03T16:46:38;2.80;;;2.60;;
4389;SDS011;2209;48.982;8.406;2022-10-03T16:49:09;5.63;;;3.03;;
4389;SDS011;2209;48.982;8.406;2022-10-03T16:51:58;8.03;;;2.60;;
4389;SDS011;2209;48.982;8.406;2022-10-03T16:54:22;6.10;;;2.87;;
4389;SDS011;2209;48.982;8.406;2022-10-03T16:56:47;4.80;;;2.87;;
4389;SDS011;2209;48.982;8.406;2022-10-03T16:59:15;3.10;;;2.73;;
4389;SDS011;2209;48.982;8.406;2022-10-03T17:01:41;3.83;;;2.60;;
4389;SDS011;2209;48.982;8.406;2022-10-03T17:04:11;4.13;;;2.70;;
4389;SDS011;2209;48.982;8.406;2022-10-03T17:06:37;8.90;;;2.90;;
4389;SDS011;2209;48.982;8.406;2022-10-03T17:09:01;3.60;;;2.60;;
4389;SDS011;2209;48.982;8.406;2022-10-03T17:11:28;5.80;;;2.73;;
4389;SDS011;2209;48.982;8.406;2022-10-03T17:13:57;4.60;;;3.03;;
4389;SDS011;2209;48.982;8.406;2022-10-03T17:16:24;10.50;;;3.50;;
4389;SDS011;2209;48.982;8.406;2022-10-03T17:18:58;5.60;;;3.13;;
4389;SDS011;2209;48.982;8.406;2022-10-03T17:21:28;7.80;;;3.37;;
4389;SDS011;2209;48.982;8.406;2022-10-03T17:23:56;6.63;;;3.40;;
4389;SDS011;2209;48.982;8.406;2022-10-03T17:26:24;9.20;;;3.60;;
4389;SDS011;2209;48.982;8.406;2022-10-03T17:28:53;6.67;;;3.63;;
4389;SDS011;2209;48.982;8.406;2022-10-03T17:31:28;3.43;;;3.03;;
4389;SDS011;2209;48.982;8.406;2022-10-03T17:33:54;5.20;;;2.70;;
4389;SDS011;2209;48.982;8.406;2022-10-03T17:39:13;8.63;;;3.23;;
4389;SDS011;2209;48.982;8.406;2022-10-03T17:41:49;7.33;;;3.53;;
4389;SDS011;2209;48.982;8.406;2022-10-03T17:44:17;3.80;;;2.83;;
4389;SDS011;2209;48.982;8.406;2022-10-03T17:46:49;6.00;;;2.93;;
4389;SDS011;2209;48.982;8.406;2022-10-03T17:49:19;4.57;;;2.60;;
4389;SDS011;2209;48.982;8.406;2022-10-03T17:51:48;5.10;;;2.70;;
4389;SDS011;2209;48.982;8.406;2022-10-03T17:54:12;8.37;;;3.50;;
4389;SDS011;2209;48.982;8.406;2022-10-03T17:56:39;5.70;;;3.27;;
4389;SDS011;2209;48.982;8.406;2022-10-03T17:59:06;4.70;;;2.97;;
4389;SDS011;2209;48.982;8.406;2022-10-03T18:01:38;7.30;;;2.77;;
4389;SDS011;2209;48.982;8.406;2022-10-03T18:04:03;9.93;;;3.17;;
4389;SDS011;2209;48.982;8.406;2022-10-03T18:06:37;6.77;;;3.17;;
4389;SDS011;2209;48.982;8.406;2022-10-03T18:09:06;2.70;;;2.50;;
4389;SDS011;2209;48.982;8.406;2022-10-03T18:11:31;7.40;;;3.00;;
4389;SDS011;2209;48.982;8.406;2022-10-03T18:13:59;5.70;;;3.30;;
4389;SDS011;2209;48.982;8.406;2022-10-03T18:16:29;6.40;;;3.23;;
4389;SDS011;2209;48.982;8.406;2022-10-03T18:19:04;3.10;;;2.90;;
4389;SDS011;2209;48.982;8.406;2022-10-03T18:21:45;8.87;;;3.73;;
4389;SDS011;2209;48.982;8.406;2022-10-03T18:24:23;6.40;;;3.20;;
4389;SDS011;2209;48.982;8.406;2022-10-03T18:26:57;5.67;;;3.50;;
4389;SDS011;2209;48.982;8.406;2022-10-03T18:29:30;4.47;;;3.80;;
4389;SDS011;2209;48.982;8.406;2022-10-03T18:31:56;6.00;;;3.33;;